McFaddin, Texas
Current Conditions -  °F | °C
As of 5:55 PM on Saturday 25 Oct 2014 (Local Time) from KPKV Reporting Station
Clear Clear  
Wind Chill: 78°   Ceiling: Unl
Heat Index: 79°   Visibility: 10mi
Dew Point: 60°   Wind: 10mph
Humidity: 53%   Direction: 120°ESE
Pressure: 30.09"   Gusts: NA
Location:  28.55°N, 97.01°W
Report Text: KPKV 252255Z AUTO 12009KT 10SM CLR 26/15 A3009 RMK AO2 T02550153
Loading
Personal Weather Stations






























Interactive Weather Map
Tropical Storm Tracking
New forecast layout! Learn more

10-Day Weather Forecast

Advertisements
Track Severe Weather on mobile